createdAt,value
2022-09-23T00:00:32.511Z,7.99
2022-09-23T00:02:34.787Z,7.95
2022-09-23T00:04:36.848Z,7.96
2022-09-23T00:06:39.748Z,7.91
2022-09-23T00:08:41.787Z,7.90
2022-09-23T00:10:43.725Z,7.88
2022-09-23T00:12:45.703Z,7.83
2022-09-23T00:14:47.659Z,7.83
2022-09-23T00:16:49.680Z,7.79
2022-09-23T00:18:51.757Z,7.83
2022-09-23T00:20:53.743Z,7.83
2022-09-23T00:22:57.862Z,7.83
2022-09-23T00:24:59.855Z,7.78
2022-09-23T00:27:01.859Z,7.79
2022-09-23T00:29:03.919Z,7.80
2022-09-23T00:31:14.672Z,7.79
2022-09-23T00:33:16.725Z,7.76
2022-09-23T00:35:19.033Z,7.73
2022-09-23T00:37:21.149Z,7.75
2022-09-23T00:39:24.256Z,7.75
2022-09-23T00:41:26.387Z,7.70
2022-09-23T00:43:54.246Z,7.72
2022-09-23T00:45:56.244Z,7.62
2022-09-23T00:48:01.483Z,7.64
2022-09-23T00:50:09.069Z,7.61
2022-09-23T00:52:15.242Z,7.56
2022-09-23T00:54:17.257Z,7.49
2022-09-23T00:56:20.783Z,7.46
2022-09-23T00:58:27.100Z,7.39
2022-09-23T01:00:29.073Z,7.30
2022-09-23T01:02:31.679Z,7.28
2022-09-23T01:04:33.751Z,7.29
2022-09-23T01:06:36.161Z,7.35
2022-09-23T01:08:38.121Z,7.28
2022-09-23T01:11:15.083Z,7.17
2022-09-23T01:13:56.943Z,7.13
2022-09-23T01:16:28.119Z,7.06
2022-09-23T01:18:43.735Z,7.04
2022-09-23T01:21:24.564Z,7.08
2022-09-23T01:23:37.940Z,7.09
2022-09-23T01:26:34.189Z,6.99
2022-09-23T01:29:00.984Z,7.00
2022-09-23T01:31:21.338Z,7.00
2022-09-23T01:33:28.495Z,6.95
2022-09-23T01:35:58.730Z,6.95
2022-09-23T01:38:21.646Z,6.90
2022-09-23T01:40:46.356Z,6.88
2022-09-23T01:42:54.302Z,6.89
2022-09-23T01:44:59.479Z,6.92
2022-09-23T01:47:10.881Z,6.91
2022-09-23T01:49:22.330Z,6.90
2022-09-23T01:51:32.532Z,6.83
2022-09-23T01:53:57.041Z,6.79
2022-09-23T01:56:04.019Z,6.71
2022-09-23T01:58:21.450Z,6.67
2022-09-23T02:00:23.567Z,6.70
2022-09-23T02:02:42.153Z,6.63
2022-09-23T02:04:51.556Z,6.59
2022-09-23T02:07:03.811Z,6.54
2022-09-23T02:09:18.513Z,6.51
2022-09-23T02:11:21.520Z,6.50
2022-09-23T02:13:40.663Z,6.49
2022-09-23T02:15:49.156Z,6.48
2022-09-23T02:18:02.418Z,6.55
2022-09-23T02:20:06.030Z,6.54
2022-09-23T02:22:43.449Z,6.55
2022-09-23T02:24:45.406Z,6.55
2022-09-23T02:26:58.854Z,6.56
2022-09-23T02:29:21.864Z,6.56
2022-09-23T02:31:45.503Z,6.54
2022-09-23T02:34:14.436Z,6.54
2022-09-23T02:36:29.730Z,6.55
2022-09-23T02:38:40.686Z,6.50
2022-09-23T02:41:01.741Z,6.46
2022-09-23T02:43:12.712Z,6.42
2022-09-23T02:45:14.809Z,6.36
2022-09-23T02:47:18.096Z,6.38
2022-09-23T02:49:27.329Z,6.32
2022-09-23T02:51:29.267Z,6.25
2022-09-23T02:53:33.930Z,6.19
2022-09-23T02:55:35.906Z,6.16
2022-09-23T02:57:37.856Z,6.14
2022-09-23T02:59:39.803Z,6.12
2022-09-23T03:02:05.120Z,6.11
2022-09-23T03:04:47.338Z,6.04
2022-09-23T03:07:13.692Z,5.96
2022-09-23T03:09:25.122Z,5.88
2022-09-23T03:11:27.093Z,5.96
2022-09-23T03:13:42.869Z,5.98
2022-09-23T03:16:28.408Z,5.83
2022-09-23T03:19:03.059Z,5.76
2022-09-23T03:21:17.465Z,5.79
2022-09-23T03:23:25.217Z,5.84
2022-09-23T03:25:31.611Z,5.75
2022-09-23T03:27:34.624Z,5.79
2022-09-23T03:29:37.038Z,5.78
2022-09-23T03:31:40.165Z,5.72
2022-09-23T03:33:51.043Z,5.62
2022-09-23T03:36:14.164Z,5.55
2022-09-23T03:38:17.381Z,5.50
2022-09-23T03:40:22.551Z,5.44
2022-09-23T03:42:27.034Z,5.51
2022-09-23T03:44:29.582Z,5.48
2022-09-23T03:46:34.069Z,5.43
2022-09-23T03:48:36.033Z,5.51
2022-09-23T03:50:39.276Z,5.55
2022-09-23T03:52:41.295Z,5.53
2022-09-23T03:54:43.315Z,5.50
2022-09-23T03:56:45.665Z,5.53
2022-09-23T03:58:49.009Z,5.53
2022-09-23T04:00:51.006Z,5.48
2022-09-23T04:02:53.056Z,5.33
2022-09-23T04:04:56.119Z,5.26
2022-09-23T04:06:58.097Z,5.20
2022-09-23T04:09:01.603Z,5.23
2022-09-23T04:11:04.777Z,5.16
2022-09-23T04:13:06.716Z,5.14
2022-09-23T04:15:09.127Z,5.14
2022-09-23T04:17:11.335Z,5.20
2022-09-23T04:19:13.675Z,5.12
2022-09-23T04:21:15.908Z,5.11
2022-09-23T04:23:17.855Z,5.09
2022-09-23T04:25:19.808Z,5.08
2022-09-23T04:27:21.832Z,5.11
2022-09-23T04:29:24.388Z,5.06
2022-09-23T04:31:26.519Z,5.05
2022-09-23T04:33:28.540Z,5.10
2022-09-23T04:35:30.504Z,5.01
2022-09-23T04:37:32.511Z,4.95
2022-09-23T04:39:34.484Z,4.83
2022-09-23T04:41:36.457Z,4.85
2022-09-23T04:43:38.732Z,4.93
2022-09-23T04:45:40.696Z,4.94
2022-09-23T04:47:42.644Z,5.00
2022-09-23T04:49:44.599Z,5.01
2022-09-23T04:51:46.778Z,5.02
2022-09-23T04:53:50.137Z,5.05
2022-09-23T04:55:52.324Z,4.99
2022-09-23T04:57:54.706Z,4.88
2022-09-23T04:59:57.462Z,4.85
2022-09-23T05:01:59.381Z,4.90
2022-09-23T05:04:03.770Z,4.86
2022-09-23T05:06:06.139Z,4.90
2022-09-23T05:08:08.085Z,4.81
2022-09-23T05:10:10.172Z,4.76
2022-09-23T05:12:12.182Z,4.72
2022-09-23T05:14:14.245Z,4.69
2022-09-23T05:16:16.610Z,4.71
2022-09-23T05:18:20.852Z,4.72
2022-09-23T05:20:22.948Z,4.75
2022-09-23T05:22:26.682Z,4.81
2022-09-23T05:24:29.751Z,4.82
2022-09-23T05:26:32.217Z,4.94
2022-09-23T05:28:34.741Z,4.87
2022-09-23T05:30:36.717Z,4.83
2022-09-23T05:32:38.700Z,4.84
2022-09-23T05:34:40.720Z,4.83
2022-09-23T05:36:42.783Z,4.96
2022-09-23T05:38:45.150Z,4.94
2022-09-23T05:40:47.207Z,4.98
2022-09-23T05:42:51.466Z,5.07
2022-09-23T05:44:53.444Z,5.08
2022-09-23T05:46:55.565Z,5.13
2022-09-23T05:49:02.204Z,5.15
2022-09-23T05:51:07.619Z,5.20
2022-09-23T05:53:09.596Z,5.22
2022-09-23T05:55:11.756Z,5.20
2022-09-23T05:57:13.715Z,5.24
2022-09-23T05:59:15.702Z,5.29
2022-09-23T06:01:24.862Z,5.35
2022-09-23T06:03:27.006Z,5.42
2022-09-23T06:05:31.070Z,5.46
2022-09-23T06:07:33.067Z,5.51
2022-09-23T06:09:36.781Z,5.57
2022-09-23T06:11:38.992Z,5.65
2022-09-23T06:13:41.200Z,5.73
2022-09-23T06:15:46.172Z,5.75
2022-09-23T06:17:51.032Z,5.83
2022-09-23T06:19:53.312Z,5.88
2022-09-23T06:21:55.249Z,5.95
2022-09-23T06:24:00.209Z,5.99
2022-09-23T06:26:03.422Z,6.04
2022-09-23T06:28:06.947Z,6.13
2022-09-23T06:30:09.672Z,6.22
2022-09-23T06:32:11.579Z,6.26
2022-09-23T06:34:14.677Z,6.32
2022-09-23T06:36:34.042Z,6.39
2022-09-23T06:38:40.371Z,6.50
2022-09-23T06:40:42.388Z,6.62
2022-09-23T06:42:45.668Z,6.72
2022-09-23T06:44:49.064Z,6.81
2022-09-23T06:46:51.356Z,6.90
2022-09-23T06:48:53.527Z,6.98
2022-09-23T06:50:58.613Z,7.10
2022-09-23T06:53:00.635Z,7.22
2022-09-23T06:55:02.727Z,7.31
2022-09-23T06:57:04.721Z,7.39
2022-09-23T06:59:09.286Z,7.50
2022-09-23T07:01:16.125Z,7.65
2022-09-23T07:03:18.300Z,7.82
2022-09-23T07:05:22.335Z,7.96
2022-09-23T07:07:24.398Z,8.10
2022-09-23T07:09:26.353Z,8.26
2022-09-23T07:11:28.355Z,8.40
2022-09-23T07:13:30.575Z,8.61
2022-09-23T07:15:33.916Z,8.76
2022-09-23T07:17:35.954Z,8.90
2022-09-23T07:19:37.928Z,9.03
2022-09-23T07:21:39.866Z,9.22
2022-09-23T07:23:50.245Z,9.38
2022-09-23T07:25:52.733Z,9.53
2022-09-23T07:27:56.580Z,9.70
2022-09-23T07:29:58.834Z,9.81
2022-09-23T07:32:12.134Z,9.91
2022-09-23T07:34:15.933Z,10.04
2022-09-23T07:36:19.113Z,10.16
2022-09-23T07:38:24.728Z,10.28
2022-09-23T07:40:26.711Z,10.43
2022-09-23T07:42:28.677Z,10.57
2022-09-23T07:44:31.721Z,10.62
2022-09-23T07:46:35.735Z,10.79
2022-09-23T07:48:38.608Z,10.84
2022-09-23T07:50:40.544Z,10.87
2022-09-23T07:52:44.303Z,10.89
2022-09-23T07:54:48.242Z,10.99
2022-09-23T07:56:50.226Z,11.04
2022-09-23T07:59:00.990Z,11.09
2022-09-23T08:01:10.351Z,11.32
2022-09-23T08:03:12.498Z,11.37
2022-09-23T08:05:14.569Z,11.45
2022-09-23T08:07:16.562Z,11.49
2022-09-23T08:09:20.761Z,11.58
2022-09-23T08:11:24.089Z,11.69
2022-09-23T08:13:26.042Z,11.81
2022-09-23T08:15:28.447Z,11.84
2022-09-23T08:17:30.494Z,11.98
2022-09-23T08:19:32.492Z,12.09
2022-09-23T08:21:34.520Z,12.20
2022-09-23T08:23:36.555Z,12.30
2022-09-23T08:25:38.519Z,12.46
2022-09-23T08:27:40.480Z,12.75
2022-09-23T08:29:42.460Z,13.04
2022-09-23T08:31:44.472Z,13.21
2022-09-23T08:33:46.417Z,13.21
2022-09-23T08:35:48.385Z,13.16
2022-09-23T08:37:50.448Z,13.22
2022-09-23T08:39:52.430Z,13.25
2022-09-23T08:41:58.376Z,13.37
2022-09-23T08:44:21.683Z,13.53
2022-09-23T08:46:31.404Z,13.75
2022-09-23T08:48:42.214Z,13.90
2022-09-23T08:50:47.623Z,14.01
2022-09-23T08:53:01.340Z,14.29
2022-09-23T08:55:04.043Z,14.59
2022-09-23T08:57:05.937Z,15.03
2022-09-23T08:59:42.074Z,15.29
2022-09-23T09:01:53.936Z,15.18
2022-09-23T09:03:58.820Z,14.97
2022-09-23T09:06:00.983Z,14.98
2022-09-23T09:08:03.243Z,15.06
2022-09-23T09:10:22.863Z,15.38
2022-09-23T09:12:56.253Z,15.64
2022-09-23T09:15:07.484Z,15.87
2022-09-23T09:17:20.149Z,16.16
2022-09-23T09:19:52.233Z,16.63
2022-09-23T09:21:55.563Z,17.08
2022-09-23T09:24:00.334Z,16.71
2022-09-23T09:26:02.864Z,16.74
2022-09-23T09:28:20.721Z,17.18
2022-09-23T09:30:23.015Z,17.51
2022-09-23T09:32:27.600Z,18.24
2022-09-23T09:34:41.415Z,18.86
2022-09-23T09:37:06.158Z,19.36
2022-09-23T09:39:13.039Z,18.69
2022-09-23T09:41:17.058Z,18.62
2022-09-23T09:43:25.511Z,18.68
2022-09-23T09:45:45.089Z,18.86
2022-09-23T09:48:03.062Z,18.98
2022-09-23T09:50:39.066Z,18.94
2022-09-23T09:52:43.355Z,19.67
2022-09-23T09:54:45.320Z,20.40
2022-09-23T09:59:23.563Z,21.47
2022-09-23T10:01:31.281Z,21.71
2022-09-23T10:03:43.226Z,22.04
2022-09-23T10:05:45.182Z,22.48
2022-09-23T10:07:48.568Z,22.61
2022-09-23T10:09:51.225Z,22.93
2022-09-23T10:12:15.704Z,23.24
2022-09-23T10:14:18.471Z,23.69
2022-09-23T10:16:20.512Z,23.53
2022-09-23T10:18:32.052Z,22.77
2022-09-23T10:20:39.066Z,22.74
2022-09-23T10:22:42.613Z,22.03
2022-09-23T10:24:48.918Z,21.96
2022-09-23T10:27:12.114Z,22.13
2022-09-23T10:29:53.484Z,22.40
2022-09-23T10:32:20.445Z,23.08
2022-09-23T10:34:28.726Z,23.73
2022-09-23T10:36:33.857Z,23.99
2022-09-23T10:38:35.897Z,24.42
2022-09-23T10:40:58.111Z,24.41
2022-09-23T10:43:43.276Z,24.73
2022-09-23T10:46:08.564Z,24.37
2022-09-23T10:48:14.318Z,23.93
2022-09-23T10:50:38.480Z,24.35
2022-09-23T10:52:58.962Z,24.47
2022-09-23T10:55:23.119Z,24.80
2022-09-23T10:57:43.004Z,24.98
2022-09-23T11:00:41.010Z,24.69
2022-09-23T11:03:01.383Z,24.85
2022-09-23T11:05:32.643Z,24.76
2022-09-23T11:08:00.623Z,24.60
2022-09-23T11:10:52.454Z,24.88
2022-09-23T11:13:06.691Z,24.48
2022-09-23T11:15:31.188Z,25.29
2022-09-23T11:18:21.901Z,25.52
2022-09-23T11:20:32.784Z,26.25
2022-09-23T11:23:26.564Z,25.99
2022-09-23T11:26:02.969Z,26.83
2022-09-23T11:28:38.185Z,27.06
2022-09-23T11:31:25.256Z,26.74
2022-09-23T11:34:04.015Z,26.92
2022-09-23T11:36:09.546Z,26.99
2022-09-23T11:38:26.316Z,26.94
2022-09-23T11:40:32.424Z,27.23
2022-09-23T11:42:39.363Z,27.22
2022-09-23T11:44:44.935Z,26.60
2022-09-23T11:46:52.494Z,26.95
2022-09-23T11:49:17.055Z,26.34
2022-09-23T11:51:28.813Z,25.95
2022-09-23T11:53:38.371Z,25.27
2022-09-23T11:55:55.378Z,25.05
2022-09-23T11:58:22.247Z,25.29
2022-09-23T12:00:32.625Z,25.58
2022-09-23T12:03:05.963Z,25.39
2022-09-23T12:05:22.144Z,25.86
2022-09-23T12:07:45.049Z,25.90
2022-09-23T12:10:08.115Z,26.42
2022-09-23T12:12:41.493Z,25.85
2022-09-23T12:15:05.242Z,25.53
2022-09-23T12:17:40.940Z,24.76
2022-09-23T12:20:17.318Z,24.23
2022-09-23T12:22:43.821Z,23.78
2022-09-23T12:25:28.875Z,23.53
2022-09-23T12:27:43.865Z,23.29
2022-09-23T12:29:45.891Z,23.38
2022-09-23T12:31:49.832Z,23.12
2022-09-23T12:33:53.672Z,22.90
2022-09-23T12:36:02.150Z,23.00
2022-09-23T12:38:18.187Z,22.79
2022-09-23T12:40:28.402Z,22.24
2022-09-23T12:42:31.423Z,22.10
2022-09-23T12:44:42.330Z,21.72
2022-09-23T12:46:45.445Z,21.69
2022-09-23T12:48:59.977Z,21.35
2022-09-23T12:51:04.543Z,21.56
2022-09-23T12:53:34.069Z,21.48
2022-09-23T12:55:35.883Z,21.42
2022-09-23T12:57:37.828Z,20.99
2022-09-23T12:59:52.534Z,20.66
2022-09-23T13:01:54.595Z,20.38
2022-09-23T13:04:17.048Z,20.55
2022-09-23T13:06:37.860Z,20.97
2022-09-23T13:08:41.461Z,21.03
2022-09-23T13:10:48.350Z,20.71
2022-09-23T13:12:50.395Z,20.22
2022-09-23T13:14:54.084Z,20.30
2022-09-23T13:16:58.392Z,19.92
2022-09-23T13:19:02.596Z,20.04
2022-09-23T13:21:04.939Z,19.94
2022-09-23T13:23:31.370Z,19.57
2022-09-23T13:25:35.911Z,19.52
2022-09-23T13:27:48.746Z,19.51
2022-09-23T13:29:58.029Z,19.40
2022-09-23T13:32:00.305Z,19.22
2022-09-23T13:34:06.776Z,19.41
2022-09-23T13:36:15.196Z,19.53
2022-09-23T13:38:26.359Z,19.48
2022-09-23T13:40:29.436Z,19.68
2022-09-23T13:42:31.424Z,19.60
2022-09-23T13:44:33.433Z,19.64
2022-09-23T13:46:45.707Z,19.63
2022-09-23T13:48:49.236Z,19.74
2022-09-23T13:50:53.372Z,19.63
2022-09-23T13:52:57.931Z,19.61
2022-09-23T13:54:59.885Z,19.77
2022-09-23T13:57:02.000Z,20.06
2022-09-23T13:59:24.889Z,20.90
2022-09-23T14:01:33.086Z,21.67
2022-09-23T14:03:39.110Z,22.27
2022-09-23T14:05:41.095Z,22.98
2022-09-23T14:07:43.065Z,23.44
2022-09-23T14:09:50.043Z,24.09
2022-09-23T14:11:52.253Z,24.69
2022-09-23T14:13:55.076Z,25.14
2022-09-23T14:15:59.370Z,25.69
2022-09-23T14:18:06.183Z,26.37
2022-09-23T14:20:17.194Z,26.49
2022-09-23T14:22:27.853Z,27.06
2022-09-23T14:24:30.949Z,27.19
2022-09-23T14:26:32.908Z,27.58
2022-09-23T14:28:34.896Z,27.47
2022-09-23T14:30:38.483Z,27.57
2022-09-23T14:32:40.584Z,27.74
2022-09-23T14:34:45.419Z,27.10
2022-09-23T14:37:07.661Z,27.54
2022-09-23T14:39:11.122Z,27.22
2022-09-23T14:41:24.630Z,27.15
2022-09-23T14:43:27.796Z,26.64
2022-09-23T14:45:36.471Z,25.80
2022-09-23T14:47:38.461Z,24.93
2022-09-23T14:50:00.417Z,24.99
2022-09-23T14:52:06.990Z,24.12
2022-09-23T14:54:36.204Z,24.86
2022-09-23T14:56:42.121Z,24.61
2022-09-23T14:58:55.295Z,23.92
2022-09-23T15:01:00.017Z,23.57
2022-09-23T15:03:03.890Z,23.48
2022-09-23T15:05:22.340Z,23.16
2022-09-23T15:07:24.316Z,22.71
2022-09-23T15:09:28.930Z,22.22
2022-09-23T15:11:32.021Z,22.15
2022-09-23T15:13:38.190Z,22.15
2022-09-23T15:15:40.356Z,21.69
2022-09-23T15:17:43.236Z,21.43
2022-09-23T15:19:46.545Z,21.23
2022-09-23T15:21:51.211Z,21.16
2022-09-23T15:23:57.445Z,20.98
2022-09-23T15:26:06.517Z,20.73
2022-09-23T15:28:11.029Z,20.84
2022-09-23T15:30:16.352Z,20.68
2022-09-23T15:32:18.412Z,20.54
2022-09-23T15:34:20.986Z,20.45
2022-09-23T15:36:27.874Z,20.12
2022-09-23T15:38:29.851Z,20.02
2022-09-23T15:40:34.400Z,19.88
2022-09-23T15:42:37.985Z,19.65
2022-09-23T15:44:40.028Z,19.56
2022-09-23T15:46:50.087Z,19.41
2022-09-23T15:49:12.892Z,19.22
2022-09-23T15:51:15.290Z,18.98
2022-09-23T15:53:35.504Z,18.83
2022-09-23T15:55:37.495Z,18.70
2022-09-23T15:57:39.438Z,18.59
2022-09-23T15:59:41.396Z,18.58
2022-09-23T16:01:44.198Z,18.50
2022-09-23T16:03:46.295Z,18.44
2022-09-23T16:05:48.869Z,18.30
2022-09-23T16:07:52.583Z,18.25
2022-09-23T16:09:54.916Z,18.20
2022-09-23T16:11:56.960Z,18.08
2022-09-23T16:14:00.527Z,18.01
2022-09-23T16:16:02.718Z,17.90
2022-09-23T16:18:06.182Z,17.84
2022-09-23T16:20:09.111Z,17.74
2022-09-23T16:22:14.582Z,17.72
2022-09-23T16:24:17.955Z,17.63
2022-09-23T16:26:28.068Z,17.59
2022-09-23T16:28:30.067Z,17.43
2022-09-23T16:30:33.987Z,17.41
2022-09-23T16:32:35.975Z,17.36
2022-09-23T16:34:37.920Z,17.26
2022-09-23T16:36:41.482Z,17.17
2022-09-23T16:38:43.987Z,17.00
2022-09-23T16:40:47.315Z,16.91
2022-09-23T16:42:52.147Z,16.67
2022-09-23T16:44:54.095Z,16.43
2022-09-23T16:46:57.765Z,16.20
2022-09-23T16:49:00.503Z,16.10
2022-09-23T16:51:05.456Z,15.95
2022-09-23T16:53:07.491Z,15.95
2022-09-23T16:55:10.483Z,15.93
2022-09-23T16:57:13.317Z,15.80
2022-09-23T16:59:16.011Z,15.71
2022-09-23T17:01:47.145Z,15.55
2022-09-23T17:03:49.294Z,15.42
2022-09-23T17:05:51.358Z,15.40
2022-09-23T17:07:53.408Z,15.30
2022-09-23T17:09:55.364Z,15.26
2022-09-23T17:12:16.687Z,15.16
2022-09-23T17:14:19.102Z,15.13
2022-09-23T17:16:29.382Z,15.02
2022-09-23T17:18:31.557Z,14.97
2022-09-23T17:20:34.364Z,14.98
2022-09-23T17:22:36.432Z,14.86
2022-09-23T17:24:38.378Z,14.75
2022-09-23T17:26:40.381Z,14.71
2022-09-23T17:28:42.350Z,14.62
2022-09-23T17:30:44.312Z,14.59
2022-09-23T17:32:47.346Z,14.59
2022-09-23T17:34:49.426Z,14.47
2022-09-23T17:36:51.379Z,14.41
2022-09-23T17:38:53.794Z,14.37
2022-09-23T17:40:57.026Z,14.34
2022-09-23T17:43:00.428Z,14.40
2022-09-23T17:45:02.390Z,14.38
2022-09-23T17:47:06.281Z,14.29
2022-09-23T17:49:09.243Z,14.17
2022-09-23T17:51:15.885Z,14.12
2022-09-23T17:53:17.841Z,14.10
2022-09-23T17:55:20.016Z,14.07
2022-09-23T17:57:22.232Z,13.99
2022-09-23T17:59:24.244Z,13.88
2022-09-23T18:01:26.389Z,13.92
2022-09-23T18:03:30.159Z,13.87
2022-09-23T18:05:32.135Z,13.84
2022-09-23T18:07:34.085Z,13.66
2022-09-23T18:09:36.108Z,13.58
2022-09-23T18:11:42.748Z,13.59
2022-09-23T18:14:13.078Z,13.69
2022-09-23T18:16:15.181Z,13.66
2022-09-23T18:18:17.285Z,13.66
2022-09-23T18:20:19.581Z,13.62
2022-09-23T18:22:21.584Z,13.63
2022-09-23T18:24:32.836Z,13.67
2022-09-23T18:26:35.578Z,13.65
2022-09-23T18:28:37.517Z,13.49
2022-09-23T18:30:40.232Z,13.39
2022-09-23T18:32:42.084Z,13.26
2022-09-23T18:34:44.105Z,13.29
2022-09-23T18:36:46.190Z,13.32
2022-09-23T18:38:48.371Z,13.25
2022-09-23T18:40:56.224Z,13.10
2022-09-23T18:42:58.276Z,12.99
2022-09-23T18:45:00.235Z,13.01
2022-09-23T18:47:02.251Z,12.90
2022-09-23T18:49:22.835Z,12.83
2022-09-23T18:51:26.236Z,12.80
2022-09-23T18:53:28.182Z,12.71
2022-09-23T18:55:35.143Z,12.72
2022-09-23T18:57:37.455Z,12.53
2022-09-23T18:59:40.032Z,12.57
2022-09-23T19:01:42.349Z,12.50
2022-09-23T19:03:44.504Z,12.42
2022-09-23T19:05:46.640Z,12.26
2022-09-23T19:07:48.722Z,12.29
2022-09-23T19:09:50.888Z,12.30
2022-09-23T19:11:53.433Z,12.15
2022-09-23T19:14:03.521Z,12.05
2022-09-23T19:16:14.286Z,12.07
2022-09-23T19:18:17.875Z,12.03
2022-09-23T19:20:22.856Z,11.95
2022-09-23T19:22:25.052Z,11.94
2022-09-23T19:24:28.406Z,11.91
2022-09-23T19:26:33.982Z,11.88
2022-09-23T19:28:36.362Z,11.85
2022-09-23T19:30:39.091Z,11.62
2022-09-23T19:32:41.341Z,11.61
2022-09-23T19:34:44.292Z,11.63
2022-09-23T19:36:47.213Z,11.57
2022-09-23T19:38:49.191Z,11.53
2022-09-23T19:40:52.320Z,11.57
2022-09-23T19:42:55.230Z,11.53
2022-09-23T19:44:57.241Z,11.50
2022-09-23T19:46:59.240Z,11.45
2022-09-23T19:49:01.362Z,11.42
2022-09-23T19:51:03.378Z,11.29
2022-09-23T19:53:08.810Z,11.31
2022-09-23T19:55:11.052Z,11.35
2022-09-23T19:57:13.257Z,11.23
2022-09-23T19:59:18.727Z,11.23
2022-09-23T20:01:32.197Z,11.13
2022-09-23T20:03:34.336Z,11.14
2022-09-23T20:05:36.400Z,11.13
2022-09-23T20:07:41.409Z,11.02
2022-09-23T20:09:43.375Z,11.03
2022-09-23T20:11:45.356Z,11.00
2022-09-23T20:13:47.652Z,10.98
2022-09-23T20:15:49.747Z,10.96
2022-09-23T20:17:54.418Z,10.89
2022-09-23T20:19:56.384Z,10.83
2022-09-23T20:22:16.887Z,10.85
2022-09-23T20:24:18.845Z,10.83
2022-09-23T20:26:39.849Z,10.74
2022-09-23T20:28:41.807Z,10.72
2022-09-23T20:30:44.162Z,10.73
2022-09-23T20:32:47.267Z,10.70
2022-09-23T20:34:49.766Z,10.63
2022-09-23T20:36:51.735Z,10.43
2022-09-23T20:38:59.492Z,10.50
2022-09-23T20:41:01.973Z,10.48
2022-09-23T20:43:04.653Z,10.52
2022-09-23T20:45:07.362Z,10.57
2022-09-23T20:47:14.019Z,10.40
2022-09-23T20:49:17.192Z,10.50
2022-09-23T20:51:19.251Z,10.43
2022-09-23T20:53:23.304Z,10.44
2022-09-23T20:55:25.280Z,10.36
2022-09-23T20:57:28.344Z,10.38
2022-09-23T20:59:30.338Z,10.41
2022-09-23T21:01:36.515Z,10.40
2022-09-23T21:03:40.367Z,10.34
2022-09-23T21:05:42.523Z,10.37
2022-09-23T21:07:47.104Z,10.34
2022-09-23T21:09:49.068Z,10.34
2022-09-23T21:11:51.092Z,10.39
2022-09-23T21:13:53.111Z,10.30
2022-09-23T21:15:55.133Z,10.28
2022-09-23T21:17:57.114Z,10.29
2022-09-23T21:19:59.966Z,10.24
2022-09-23T21:22:01.856Z,10.18
2022-09-23T21:24:33.057Z,10.14
2022-09-23T21:26:26.828Z,10.11
2022-09-23T21:28:36.616Z,10.04
2022-09-23T21:30:38.536Z,10.02
2022-09-23T21:32:40.501Z,10.01
2022-09-23T21:34:42.881Z,10.03
2022-09-23T21:36:46.233Z,10.01
2022-09-23T21:38:48.177Z,10.04
2022-09-23T21:40:58.104Z,10.04
2022-09-23T21:43:00.421Z,9.98
2022-09-23T21:45:04.216Z,10.03
2022-09-23T21:47:06.206Z,10.05
2022-09-23T21:49:09.139Z,10.03
2022-09-23T21:51:14.156Z,9.94
2022-09-23T21:53:16.894Z,9.88
2022-09-23T21:55:19.156Z,9.78
2022-09-23T21:57:21.113Z,9.85
2022-09-23T21:59:23.178Z,9.73
2022-09-23T22:01:30.505Z,9.79
2022-09-23T22:03:32.595Z,9.83
2022-09-23T22:05:34.706Z,9.88
2022-09-23T22:07:38.147Z,9.86
2022-09-23T22:09:40.337Z,9.85
2022-09-23T22:12:01.055Z,9.85
2022-09-23T22:14:05.750Z,9.89
2022-09-23T22:16:07.782Z,9.86
2022-09-23T22:18:10.341Z,9.73
2022-09-23T22:20:12.295Z,9.75
2022-09-23T22:22:15.554Z,9.79
2022-09-23T22:24:17.478Z,9.76
2022-09-23T22:26:19.561Z,9.73
2022-09-23T22:28:39.755Z,9.73
2022-09-23T22:31:00.440Z,9.75
2022-09-23T22:33:08.223Z,9.73
2022-09-23T22:35:18.699Z,9.68
2022-09-23T22:37:25.694Z,9.71
2022-09-23T22:39:29.133Z,9.65
2022-09-23T22:41:31.551Z,9.55
2022-09-23T22:43:33.612Z,9.60
2022-09-23T22:45:37.665Z,9.55
2022-09-23T22:47:40.621Z,9.59
2022-09-23T22:49:42.988Z,9.54
2022-09-23T22:51:45.041Z,9.46
2022-09-23T22:53:46.981Z,9.53
2022-09-23T22:56:01.122Z,9.50
2022-09-23T22:58:21.273Z,9.56
2022-09-23T23:00:25.036Z,9.51
2022-09-23T23:02:27.665Z,9.47
2022-09-23T23:04:30.069Z,9.45
2022-09-23T23:06:36.415Z,9.49
2022-09-23T23:08:38.885Z,9.56
2022-09-23T23:10:40.994Z,9.55
2022-09-23T23:12:43.051Z,9.56
2022-09-23T23:14:45.189Z,9.56
2022-09-23T23:16:47.421Z,9.54
2022-09-23T23:18:49.415Z,9.59
2022-09-23T23:20:51.557Z,9.56
2022-09-23T23:22:53.762Z,9.61
2022-09-23T23:24:55.841Z,9.56
2022-09-23T23:26:57.795Z,9.48
2022-09-23T23:29:00.514Z,9.48
2022-09-23T23:31:07.894Z,9.54
2022-09-23T23:33:10.068Z,9.49
2022-09-23T23:35:12.019Z,9.50
2022-09-23T23:37:17.650Z,9.51
2022-09-23T23:39:25.648Z,9.50
2022-09-23T23:41:28.185Z,9.56
2022-09-23T23:43:30.233Z,9.49
2022-09-23T23:45:32.213Z,9.44
2022-09-23T23:47:34.190Z,9.42
2022-09-23T23:49:36.140Z,9.50
2022-09-23T23:51:38.091Z,9.52
2022-09-23T23:53:40.478Z,9.54
2022-09-23T23:55:42.472Z,9.58
2022-09-23T23:57:44.429Z,9.53
2022-09-23T23:59:47.221Z,9.51
